sensor_id;sensor_type;location;lat;lon;timestamp;temperature;humidity
5172;DHT22;2605;49.770;9.868;2023-07-13T00:02:07;18.90;99.90
5172;DHT22;2605;49.770;9.868;2023-07-13T00:04:33;18.90;99.90
5172;DHT22;2605;49.770;9.868;2023-07-13T00:06:59;18.90;99.90
5172;DHT22;2605;49.770;9.868;2023-07-13T00:09:24;18.80;99.90
5172;DHT22;2605;49.770;9.868;2023-07-13T00:11:53;18.70;99.90
5172;DHT22;2605;49.770;9.868;2023-07-13T00:14:22;18.70;99.90
5172;DHT22;2605;49.770;9.868;2023-07-13T00:16:48;18.70;99.90
5172;DHT22;2605;49.770;9.868;2023-07-13T00:19:14;18.60;99.90
5172;DHT22;2605;49.770;9.868;2023-07-13T00:21:41;18.60;99.90
5172;DHT22;2605;49.770;9.868;2023-07-13T00:24:11;18.60;99.90
5172;DHT22;2605;49.770;9.868;2023-07-13T00:26:40;18.50;99.90
5172;DHT22;2605;49.770;9.868;2023-07-13T00:29:06;18.50;99.90
5172;DHT22;2605;49.770;9.868;2023-07-13T00:31:34;18.40;99.90
5172;DHT22;2605;49.770;9.868;2023-07-13T00:34:01;18.50;99.90
5172;DHT22;2605;49.770;9.868;2023-07-13T00:36:26;18.40;99.90
5172;DHT22;2605;49.770;9.868;2023-07-13T00:38:52;18.30;99.90
5172;DHT22;2605;49.770;9.868;2023-07-13T00:41:18;18.30;99.90
5172;DHT22;2605;49.770;9.868;2023-07-13T00:43:44;18.30;99.90
5172;DHT22;2605;49.770;9.868;2023-07-13T00:46:16;18.20;99.90
5172;DHT22;2605;49.770;9.868;2023-07-13T00:48:43;18.20;99.90
5172;DHT22;2605;49.770;9.868;2023-07-13T00:51:10;18.20;99.90
5172;DHT22;2605;49.770;9.868;2023-07-13T00:53:36;18.10;99.90
5172;DHT22;2605;49.770;9.868;2023-07-13T00:56:03;18.00;99.90
5172;DHT22;2605;49.770;9.868;2023-07-13T00:58:29;17.90;99.90
5172;DHT22;2605;49.770;9.868;2023-07-13T01:00:55;17.90;99.90
5172;DHT22;2605;49.770;9.868;2023-07-13T01:03:21;17.80;99.90
5172;DHT22;2605;49.770;9.868;2023-07-13T01:05:48;17.70;99.90
5172;DHT22;2605;49.770;9.868;2023-07-13T01:08:14;17.80;99.90
5172;DHT22;2605;49.770;9.868;2023-07-13T01:10:40;17.70;99.90
5172;DHT22;2605;49.770;9.868;2023-07-13T01:13:08;17.60;99.90
5172;DHT22;2605;49.770;9.868;2023-07-13T01:15:45;17.60;99.90
5172;DHT22;2605;49.770;9.868;2023-07-13T01:18:18;17.50;99.90
5172;DHT22;2605;49.770;9.868;2023-07-13T01:23:23;17.50;99.90
5172;DHT22;2605;49.770;9.868;2023-07-13T01:25:50;17.40;99.90
5172;DHT22;2605;49.770;9.868;2023-07-13T01:28:16;17.40;99.90
5172;DHT22;2605;49.770;9.868;2023-07-13T01:30:43;17.40;99.90
5172;DHT22;2605;49.770;9.868;2023-07-13T01:33:14;17.30;99.90
5172;DHT22;2605;49.770;9.868;2023-07-13T01:35:42;17.20;99.90
5172;DHT22;2605;49.770;9.868;2023-07-13T01:38:07;17.20;99.90
5172;DHT22;2605;49.770;9.868;2023-07-13T01:40:34;17.10;99.90
5172;DHT22;2605;49.770;9.868;2023-07-13T01:43:00;17.10;99.90
5172;DHT22;2605;49.770;9.868;2023-07-13T01:45:26;17.10;99.90
5172;DHT22;2605;49.770;9.868;2023-07-13T01:47:51;17.00;99.90
5172;DHT22;2605;49.770;9.868;2023-07-13T01:50:17;17.00;99.90
5172;DHT22;2605;49.770;9.868;2023-07-13T01:52:42;17.00;99.90
5172;DHT22;2605;49.770;9.868;2023-07-13T01:55:08;17.00;99.90
5172;DHT22;2605;49.770;9.868;2023-07-13T01:57:34;17.00;99.90
5172;DHT22;2605;49.770;9.868;2023-07-13T02:00:01;16.90;99.90
5172;DHT22;2605;49.770;9.868;2023-07-13T02:02:26;16.90;99.90
5172;DHT22;2605;49.770;9.868;2023-07-13T02:04:52;16.80;99.90
5172;DHT22;2605;49.770;9.868;2023-07-13T02:07:17;16.80;99.90
5172;DHT22;2605;49.770;9.868;2023-07-13T02:09:43;16.80;99.90
5172;DHT22;2605;49.770;9.868;2023-07-13T02:12:09;16.80;99.90
5172;DHT22;2605;49.770;9.868;2023-07-13T02:14:34;16.80;99.90
5172;DHT22;2605;49.770;9.868;2023-07-13T02:17:00;16.70;99.90
5172;DHT22;2605;49.770;9.868;2023-07-13T02:19:25;16.80;99.90
5172;DHT22;2605;49.770;9.868;2023-07-13T02:21:51;16.70;99.90
5172;DHT22;2605;49.770;9.868;2023-07-13T02:24:16;16.70;99.90
5172;DHT22;2605;49.770;9.868;2023-07-13T02:26:45;16.60;99.90
5172;DHT22;2605;49.770;9.868;2023-07-13T02:29:11;16.60;99.90
5172;DHT22;2605;49.770;9.868;2023-07-13T02:31:37;16.50;99.90
5172;DHT22;2605;49.770;9.868;2023-07-13T02:34:03;16.50;99.90
5172;DHT22;2605;49.770;9.868;2023-07-13T02:36:29;16.50;99.90
5172;DHT22;2605;49.770;9.868;2023-07-13T02:38:55;16.40;99.90
5172;DHT22;2605;49.770;9.868;2023-07-13T02:41:20;16.50;99.90
5172;DHT22;2605;49.770;9.868;2023-07-13T02:43:48;16.30;99.90
5172;DHT22;2605;49.770;9.868;2023-07-13T02:46:13;16.30;99.90
5172;DHT22;2605;49.770;9.868;2023-07-13T02:48:39;16.30;99.90
5172;DHT22;2605;49.770;9.868;2023-07-13T02:51:05;16.30;99.90
5172;DHT22;2605;49.770;9.868;2023-07-13T02:53:30;16.20;99.90
5172;DHT22;2605;49.770;9.868;2023-07-13T02:55:56;16.20;99.90
5172;DHT22;2605;49.770;9.868;2023-07-13T02:58:21;16.20;99.90
5172;DHT22;2605;49.770;9.868;2023-07-13T03:00:47;16.10;99.90
5172;DHT22;2605;49.770;9.868;2023-07-13T03:03:14;16.10;99.90
5172;DHT22;2605;49.770;9.868;2023-07-13T03:05:41;16.10;99.90
5172;DHT22;2605;49.770;9.868;2023-07-13T03:08:11;16.10;99.90
5172;DHT22;2605;49.770;9.868;2023-07-13T03:10:37;17.00;99.90
5172;DHT22;2605;49.770;9.868;2023-07-13T03:13:03;16.10;99.90
5172;DHT22;2605;49.770;9.868;2023-07-13T03:15:29;16.10;99.90
5172;DHT22;2605;49.770;9.868;2023-07-13T03:17:54;16.00;99.90
5172;DHT22;2605;49.770;9.868;2023-07-13T03:20:20;15.90;99.90
5172;DHT22;2605;49.770;9.868;2023-07-13T03:22:46;15.80;99.90
5172;DHT22;2605;49.770;9.868;2023-07-13T03:25:11;15.80;99.90
5172;DHT22;2605;49.770;9.868;2023-07-13T03:27:37;15.90;99.90
5172;DHT22;2605;49.770;9.868;2023-07-13T03:30:04;15.80;99.90
5172;DHT22;2605;49.770;9.868;2023-07-13T03:32:30;15.80;99.90
5172;DHT22;2605;49.770;9.868;2023-07-13T03:34:56;15.80;99.90
5172;DHT22;2605;49.770;9.868;2023-07-13T03:37:21;15.80;99.90
5172;DHT22;2605;49.770;9.868;2023-07-13T03:39:46;15.80;99.90
5172;DHT22;2605;49.770;9.868;2023-07-13T03:42:12;15.80;99.90
5172;DHT22;2605;49.770;9.868;2023-07-13T03:44:39;15.80;99.90
5172;DHT22;2605;49.770;9.868;2023-07-13T03:47:05;15.80;99.90
5172;DHT22;2605;49.770;9.868;2023-07-13T03:49:31;15.80;99.90
5172;DHT22;2605;49.770;9.868;2023-07-13T03:52:00;15.90;99.90
5172;DHT22;2605;49.770;9.868;2023-07-13T03:54:26;15.80;99.90
5172;DHT22;2605;49.770;9.868;2023-07-13T03:56:51;15.80;99.90
5172;DHT22;2605;49.770;9.868;2023-07-13T03:59:16;15.80;99.90
5172;DHT22;2605;49.770;9.868;2023-07-13T04:01:43;16.70;99.90
5172;DHT22;2605;49.770;9.868;2023-07-13T04:04:09;15.70;99.90
5172;DHT22;2605;49.770;9.868;2023-07-13T04:06:35;15.70;99.90
5172;DHT22;2605;49.770;9.868;2023-07-13T04:09:01;15.80;99.90
5172;DHT22;2605;49.770;9.868;2023-07-13T04:11:30;15.80;99.90
5172;DHT22;2605;49.770;9.868;2023-07-13T04:13:56;15.80;99.90
5172;DHT22;2605;49.770;9.868;2023-07-13T04:16:22;15.80;99.90
5172;DHT22;2605;49.770;9.868;2023-07-13T04:18:48;15.80;99.90
5172;DHT22;2605;49.770;9.868;2023-07-13T04:21:14;16.00;99.90
5172;DHT22;2605;49.770;9.868;2023-07-13T04:23:40;15.90;99.90
5172;DHT22;2605;49.770;9.868;2023-07-13T04:26:06;15.90;99.90
5172;DHT22;2605;49.770;9.868;2023-07-13T04:28:32;16.00;99.90
5172;DHT22;2605;49.770;9.868;2023-07-13T04:30:57;16.10;99.90
5172;DHT22;2605;49.770;9.868;2023-07-13T04:33:23;16.30;99.90
5172;DHT22;2605;49.770;9.868;2023-07-13T04:35:53;16.30;99.90
5172;DHT22;2605;49.770;9.868;2023-07-13T04:38:27;16.30;99.90
5172;DHT22;2605;49.770;9.868;2023-07-13T04:40:55;16.40;99.90
5172;DHT22;2605;49.770;9.868;2023-07-13T04:43:22;16.40;99.90
5172;DHT22;2605;49.770;9.868;2023-07-13T04:45:47;16.40;99.90
5172;DHT22;2605;49.770;9.868;2023-07-13T04:48:13;16.40;99.90
5172;DHT22;2605;49.770;9.868;2023-07-13T04:50:38;16.50;99.90
5172;DHT22;2605;49.770;9.868;2023-07-13T04:53:04;16.40;99.90
5172;DHT22;2605;49.770;9.868;2023-07-13T04:55:30;16.40;99.90
5172;DHT22;2605;49.770;9.868;2023-07-13T04:57:56;16.50;99.90
5172;DHT22;2605;49.770;9.868;2023-07-13T05:00:24;16.30;99.90
5172;DHT22;2605;49.770;9.868;2023-07-13T05:02:50;16.20;99.90
5172;DHT22;2605;49.770;9.868;2023-07-13T05:05:15;16.10;99.90
5172;DHT22;2605;49.770;9.868;2023-07-13T05:07:41;16.20;99.90
5172;DHT22;2605;49.770;9.868;2023-07-13T05:10:07;16.10;99.90
5172;DHT22;2605;49.770;9.868;2023-07-13T05:12:32;16.00;99.90
5172;DHT22;2605;49.770;9.868;2023-07-13T05:14:58;16.00;99.90
5172;DHT22;2605;49.770;9.868;2023-07-13T05:17:24;15.90;99.90
5172;DHT22;2605;49.770;9.868;2023-07-13T05:19:49;16.00;99.90
5172;DHT22;2605;49.770;9.868;2023-07-13T05:22:15;16.00;99.90
5172;DHT22;2605;49.770;9.868;2023-07-13T05:24:40;16.10;99.90
5172;DHT22;2605;49.770;9.868;2023-07-13T05:27:06;16.10;99.90
5172;DHT22;2605;49.770;9.868;2023-07-13T05:29:31;16.20;99.90
5172;DHT22;2605;49.770;9.868;2023-07-13T05:31:57;16.20;99.90
5172;DHT22;2605;49.770;9.868;2023-07-13T05:34:23;16.30;99.90
5172;DHT22;2605;49.770;9.868;2023-07-13T05:36:49;16.40;99.90
5172;DHT22;2605;49.770;9.868;2023-07-13T05:39:15;16.50;99.90
5172;DHT22;2605;49.770;9.868;2023-07-13T05:41:41;16.60;99.90
5172;DHT22;2605;49.770;9.868;2023-07-13T05:44:06;16.50;99.90
5172;DHT22;2605;49.770;9.868;2023-07-13T05:46:32;16.60;99.90
5172;DHT22;2605;49.770;9.868;2023-07-13T05:48:57;16.60;99.90
5172;DHT22;2605;49.770;9.868;2023-07-13T05:51:23;16.60;99.90
5172;DHT22;2605;49.770;9.868;2023-07-13T05:53:48;16.60;99.90
5172;DHT22;2605;49.770;9.868;2023-07-13T05:56:14;16.70;99.90
5172;DHT22;2605;49.770;9.868;2023-07-13T05:58:39;16.60;99.90
5172;DHT22;2605;49.770;9.868;2023-07-13T06:01:07;16.50;99.90
5172;DHT22;2605;49.770;9.868;2023-07-13T06:03:34;16.50;99.90
5172;DHT22;2605;49.770;9.868;2023-07-13T06:05:59;16.50;99.90
5172;DHT22;2605;49.770;9.868;2023-07-13T06:08:26;16.60;99.90
5172;DHT22;2605;49.770;9.868;2023-07-13T06:10:51;16.60;99.90
5172;DHT22;2605;49.770;9.868;2023-07-13T06:13:17;16.70;99.90
5172;DHT22;2605;49.770;9.868;2023-07-13T06:15:48;16.80;99.90
5172;DHT22;2605;49.770;9.868;2023-07-13T06:18:14;16.80;99.90
5172;DHT22;2605;49.770;9.868;2023-07-13T06:20:39;16.90;99.90
5172;DHT22;2605;49.770;9.868;2023-07-13T06:23:05;16.80;99.90
5172;DHT22;2605;49.770;9.868;2023-07-13T06:25:30;16.90;99.90
5172;DHT22;2605;49.770;9.868;2023-07-13T06:27:56;17.00;99.90
5172;DHT22;2605;49.770;9.868;2023-07-13T06:30:21;17.10;99.90
5172;DHT22;2605;49.770;9.868;2023-07-13T06:32:47;17.10;99.90
5172;DHT22;2605;49.770;9.868;2023-07-13T06:35:12;17.20;99.90
5172;DHT22;2605;49.770;9.868;2023-07-13T06:37:38;17.40;99.90
5172;DHT22;2605;49.770;9.868;2023-07-13T06:40:05;17.30;99.90
5172;DHT22;2605;49.770;9.868;2023-07-13T06:42:31;17.30;99.90
5172;DHT22;2605;49.770;9.868;2023-07-13T06:44:56;17.40;99.90
5172;DHT22;2605;49.770;9.868;2023-07-13T06:47:22;17.50;99.90
5172;DHT22;2605;49.770;9.868;2023-07-13T06:49:47;17.60;99.90
5172;DHT22;2605;49.770;9.868;2023-07-13T06:52:13;17.60;99.90
5172;DHT22;2605;49.770;9.868;2023-07-13T06:54:39;17.60;99.90
5172;DHT22;2605;49.770;9.868;2023-07-13T06:57:04;17.70;99.90
5172;DHT22;2605;49.770;9.868;2023-07-13T06:59:30;17.70;99.90
5172;DHT22;2605;49.770;9.868;2023-07-13T07:01:56;17.70;99.90
5172;DHT22;2605;49.770;9.868;2023-07-13T07:04:21;17.80;99.90
5172;DHT22;2605;49.770;9.868;2023-07-13T07:06:47;18.00;99.90
5172;DHT22;2605;49.770;9.868;2023-07-13T07:09:15;18.10;99.90
5172;DHT22;2605;49.770;9.868;2023-07-13T07:11:42;18.30;99.90
5172;DHT22;2605;49.770;9.868;2023-07-13T07:14:08;18.50;99.90
5172;DHT22;2605;49.770;9.868;2023-07-13T07:16:33;18.50;99.90
5172;DHT22;2605;49.770;9.868;2023-07-13T07:18:59;18.40;99.90
5172;DHT22;2605;49.770;9.868;2023-07-13T07:21:24;18.60;99.90
5172;DHT22;2605;49.770;9.868;2023-07-13T07:23:51;18.80;99.90
5172;DHT22;2605;49.770;9.868;2023-07-13T07:26:17;19.00;99.90
5172;DHT22;2605;49.770;9.868;2023-07-13T07:28:43;19.10;99.90
5172;DHT22;2605;49.770;9.868;2023-07-13T07:31:08;19.10;99.90
5172;DHT22;2605;49.770;9.868;2023-07-13T07:33:34;19.10;99.90
5172;DHT22;2605;49.770;9.868;2023-07-13T07:36:00;19.00;99.90
5172;DHT22;2605;49.770;9.868;2023-07-13T07:38:25;18.90;99.90
5172;DHT22;2605;49.770;9.868;2023-07-13T07:40:53;19.00;99.90
5172;DHT22;2605;49.770;9.868;2023-07-13T07:43:18;19.00;99.90
5172;DHT22;2605;49.770;9.868;2023-07-13T07:45:44;19.20;99.90
5172;DHT22;2605;49.770;9.868;2023-07-13T07:48:10;19.20;99.90
5172;DHT22;2605;49.770;9.868;2023-07-13T07:50:37;19.30;99.90
5172;DHT22;2605;49.770;9.868;2023-07-13T07:53:03;19.30;99.90
5172;DHT22;2605;49.770;9.868;2023-07-13T07:55:33;19.40;99.90
5172;DHT22;2605;49.770;9.868;2023-07-13T07:57:59;19.30;99.90
5172;DHT22;2605;49.770;9.868;2023-07-13T08:00:24;19.40;99.90
5172;DHT22;2605;49.770;9.868;2023-07-13T08:02:50;19.50;99.90
5172;DHT22;2605;49.770;9.868;2023-07-13T08:05:16;19.60;99.90
5172;DHT22;2605;49.770;9.868;2023-07-13T08:07:41;19.70;99.90
5172;DHT22;2605;49.770;9.868;2023-07-13T08:10:07;19.90;99.90
5172;DHT22;2605;49.770;9.868;2023-07-13T08:12:37;20.00;99.90
5172;DHT22;2605;49.770;9.868;2023-07-13T08:15:04;20.00;99.90
5172;DHT22;2605;49.770;9.868;2023-07-13T08:17:29;20.10;99.90
5172;DHT22;2605;49.770;9.868;2023-07-13T08:19:55;20.20;99.90
5172;DHT22;2605;49.770;9.868;2023-07-13T08:22:20;20.40;99.90
5172;DHT22;2605;49.770;9.868;2023-07-13T08:24:49;20.30;99.90
5172;DHT22;2605;49.770;9.868;2023-07-13T08:27:22;20.30;99.90
5172;DHT22;2605;49.770;9.868;2023-07-13T08:29:48;20.50;99.90
5172;DHT22;2605;49.770;9.868;2023-07-13T08:32:18;20.60;99.90
5172;DHT22;2605;49.770;9.868;2023-07-13T08:34:44;20.70;99.90
5172;DHT22;2605;49.770;9.868;2023-07-13T08:37:09;20.60;99.90
5172;DHT22;2605;49.770;9.868;2023-07-13T08:39:35;20.70;99.90
5172;DHT22;2605;49.770;9.868;2023-07-13T08:42:53;20.50;99.90
5172;DHT22;2605;49.770;9.868;2023-07-13T08:47:33;20.80;99.90
5172;DHT22;2605;49.770;9.868;2023-07-13T08:50:02;21.00;99.90
5172;DHT22;2605;49.770;9.868;2023-07-13T08:52:41;21.00;99.90
5172;DHT22;2605;49.770;9.868;2023-07-13T08:57:40;21.30;99.90
5172;DHT22;2605;49.770;9.868;2023-07-13T09:00:13;21.20;99.90
5172;DHT22;2605;49.770;9.868;2023-07-13T09:02:54;21.20;99.90
5172;DHT22;2605;49.770;9.868;2023-07-13T09:05:30;21.20;99.90
5172;DHT22;2605;49.770;9.868;2023-07-13T09:11:23;21.10;99.90
5172;DHT22;2605;49.770;9.868;2023-07-13T09:13:57;21.30;99.90
5172;DHT22;2605;49.770;9.868;2023-07-13T09:16:25;21.50;99.90
5172;DHT22;2605;49.770;9.868;2023-07-13T09:18:54;21.80;99.90
5172;DHT22;2605;49.770;9.868;2023-07-13T09:21:34;21.90;99.90
5172;DHT22;2605;49.770;9.868;2023-07-13T09:24:35;21.80;99.90
5172;DHT22;2605;49.770;9.868;2023-07-13T09:27:09;21.80;99.90
5172;DHT22;2605;49.770;9.868;2023-07-13T09:29:38;21.80;99.90
5172;DHT22;2605;49.770;9.868;2023-07-13T09:32:10;21.90;99.90
5172;DHT22;2605;49.770;9.868;2023-07-13T09:34:38;22.30;99.90
5172;DHT22;2605;49.770;9.868;2023-07-13T09:37:03;22.10;99.90
5172;DHT22;2605;49.770;9.868;2023-07-13T09:39:34;22.00;99.90
5172;DHT22;2605;49.770;9.868;2023-07-13T09:44:56;22.80;99.90
5172;DHT22;2605;49.770;9.868;2023-07-13T09:47:24;23.00;99.90
5172;DHT22;2605;49.770;9.868;2023-07-13T09:50:03;22.90;99.90
5172;DHT22;2605;49.770;9.868;2023-07-13T09:52:46;22.80;99.90
5172;DHT22;2605;49.770;9.868;2023-07-13T09:57:48;22.80;99.90
5172;DHT22;2605;49.770;9.868;2023-07-13T10:00:22;23.00;99.90
5172;DHT22;2605;49.770;9.868;2023-07-13T10:03:04;22.90;99.90
5172;DHT22;2605;49.770;9.868;2023-07-13T10:05:38;23.00;99.90
5172;DHT22;2605;49.770;9.868;2023-07-13T10:08:04;22.50;99.90
5172;DHT22;2605;49.770;9.868;2023-07-13T10:10:32;22.30;99.90
5172;DHT22;2605;49.770;9.868;2023-07-13T10:12:58;22.50;99.90
5172;DHT22;2605;49.770;9.868;2023-07-13T10:15:30;22.30;99.90
5172;DHT22;2605;49.770;9.868;2023-07-13T10:17:56;22.50;99.90
5172;DHT22;2605;49.770;9.868;2023-07-13T10:20:24;22.70;99.90
5172;DHT22;2605;49.770;9.868;2023-07-13T10:22:52;22.70;99.90
5172;DHT22;2605;49.770;9.868;2023-07-13T10:25:25;22.90;99.90
5172;DHT22;2605;49.770;9.868;2023-07-13T10:27:53;22.90;99.90
5172;DHT22;2605;49.770;9.868;2023-07-13T10:30:24;23.20;99.90
5172;DHT22;2605;49.770;9.868;2023-07-13T10:32:53;23.50;99.90
5172;DHT22;2605;49.770;9.868;2023-07-13T10:35:20;23.30;99.90
5172;DHT22;2605;49.770;9.868;2023-07-13T10:38:03;23.30;99.90
5172;DHT22;2605;49.770;9.868;2023-07-13T10:40:40;23.20;99.90
5172;DHT22;2605;49.770;9.868;2023-07-13T10:43:41;23.20;99.90
5172;DHT22;2605;49.770;9.868;2023-07-13T10:46:11;23.50;99.90
5172;DHT22;2605;49.770;9.868;2023-07-13T10:48:37;23.10;99.90
5172;DHT22;2605;49.770;9.868;2023-07-13T10:51:05;23.40;99.90
5172;DHT22;2605;49.770;9.868;2023-07-13T10:53:34;23.30;99.90
5172;DHT22;2605;49.770;9.868;2023-07-13T10:56:19;23.10;99.90
5172;DHT22;2605;49.770;9.868;2023-07-13T10:59:11;22.70;99.90
5172;DHT22;2605;49.770;9.868;2023-07-13T11:01:54;22.70;99.90
5172;DHT22;2605;49.770;9.868;2023-07-13T11:04:21;22.70;99.90
5172;DHT22;2605;49.770;9.868;2023-07-13T11:06:52;22.70;99.90
5172;DHT22;2605;49.770;9.868;2023-07-13T11:09:39;22.90;99.90
5172;DHT22;2605;49.770;9.868;2023-07-13T11:12:25;23.20;99.90
5172;DHT22;2605;49.770;9.868;2023-07-13T11:17:37;23.60;99.90
5172;DHT22;2605;49.770;9.868;2023-07-13T11:20:21;23.80;99.90
5172;DHT22;2605;49.770;9.868;2023-07-13T11:23:09;24.30;99.90
5172;DHT22;2605;49.770;9.868;2023-07-13T11:25:36;24.20;99.90
5172;DHT22;2605;49.770;9.868;2023-07-13T11:30:58;23.80;99.90
5172;DHT22;2605;49.770;9.868;2023-07-13T11:36:13;23.80;99.90
5172;DHT22;2605;49.770;9.868;2023-07-13T11:38:41;24.00;99.90
5172;DHT22;2605;49.770;9.868;2023-07-13T11:41:34;23.70;99.90
5172;DHT22;2605;49.770;9.868;2023-07-13T11:44:27;23.50;99.90
5172;DHT22;2605;49.770;9.868;2023-07-13T11:46:58;23.60;99.90
5172;DHT22;2605;49.770;9.868;2023-07-13T11:49:29;23.60;99.90
5172;DHT22;2605;49.770;9.868;2023-07-13T11:51:55;23.90;99.90
5172;DHT22;2605;49.770;9.868;2023-07-13T11:54:46;24.10;99.90
5172;DHT22;2605;49.770;9.868;2023-07-13T11:59:54;24.30;99.90
5172;DHT22;2605;49.770;9.868;2023-07-13T12:02:36;24.10;99.90
5172;DHT22;2605;49.770;9.868;2023-07-13T12:05:04;24.20;99.90
5172;DHT22;2605;49.770;9.868;2023-07-13T12:07:32;24.00;99.90
5172;DHT22;2605;49.770;9.868;2023-07-13T12:12:48;23.70;99.90
5172;DHT22;2605;49.770;9.868;2023-07-13T12:15:14;23.40;99.90
5172;DHT22;2605;49.770;9.868;2023-07-13T12:17:41;23.30;99.90
5172;DHT22;2605;49.770;9.868;2023-07-13T12:20:27;23.70;99.90
5172;DHT22;2605;49.770;9.868;2023-07-13T12:22:54;23.50;99.90
5172;DHT22;2605;49.770;9.868;2023-07-13T12:25:23;23.60;99.90
5172;DHT22;2605;49.770;9.868;2023-07-13T12:27:50;24.00;99.90
5172;DHT22;2605;49.770;9.868;2023-07-13T12:30:29;24.10;99.90
5172;DHT22;2605;49.770;9.868;2023-07-13T12:33:07;23.60;99.90
5172;DHT22;2605;49.770;9.868;2023-07-13T12:35:47;23.80;99.90
5172;DHT22;2605;49.770;9.868;2023-07-13T12:38:13;23.80;99.90
5172;DHT22;2605;49.770;9.868;2023-07-13T12:40:40;23.90;99.90
5172;DHT22;2605;49.770;9.868;2023-07-13T12:43:11;23.90;99.90
5172;DHT22;2605;49.770;9.868;2023-07-13T12:45:37;24.20;99.90
5172;DHT22;2605;49.770;9.868;2023-07-13T12:48:14;24.50;99.90
5172;DHT22;2605;49.770;9.868;2023-07-13T12:50:42;24.70;99.90
5172;DHT22;2605;49.770;9.868;2023-07-13T12:53:23;24.80;99.90
5172;DHT22;2605;49.770;9.868;2023-07-13T12:55:56;24.80;99.90
5172;DHT22;2605;49.770;9.868;2023-07-13T12:58:40;24.90;99.90
5172;DHT22;2605;49.770;9.868;2023-07-13T13:01:13;24.20;99.90
5172;DHT22;2605;49.770;9.868;2023-07-13T13:03:44;24.00;99.90
5172;DHT22;2605;49.770;9.868;2023-07-13T13:08:42;23.70;99.90
5172;DHT22;2605;49.770;9.868;2023-07-13T13:11:09;24.00;99.90
5172;DHT22;2605;49.770;9.868;2023-07-13T13:13:35;24.20;99.90
5172;DHT22;2605;49.770;9.868;2023-07-13T13:16:14;23.80;99.90
5172;DHT22;2605;49.770;9.868;2023-07-13T13:18:42;23.80;99.90
5172;DHT22;2605;49.770;9.868;2023-07-13T13:21:09;24.00;99.90
5172;DHT22;2605;49.770;9.868;2023-07-13T13:23:35;23.90;99.90
5172;DHT22;2605;49.770;9.868;2023-07-13T13:26:02;24.20;99.90
5172;DHT22;2605;49.770;9.868;2023-07-13T13:28:28;24.20;99.90
5172;DHT22;2605;49.770;9.868;2023-07-13T13:30:54;24.20;99.90
5172;DHT22;2605;49.770;9.868;2023-07-13T13:33:21;24.30;99.90
5172;DHT22;2605;49.770;9.868;2023-07-13T13:35:47;24.40;99.90
5172;DHT22;2605;49.770;9.868;2023-07-13T13:38:14;24.10;99.90
5172;DHT22;2605;49.770;9.868;2023-07-13T13:40:41;24.20;99.90
5172;DHT22;2605;49.770;9.868;2023-07-13T13:43:23;24.50;99.90
5172;DHT22;2605;49.770;9.868;2023-07-13T13:45:56;24.20;99.90
5172;DHT22;2605;49.770;9.868;2023-07-13T13:48:33;24.10;99.90
5172;DHT22;2605;49.770;9.868;2023-07-13T13:51:00;24.30;99.90
5172;DHT22;2605;49.770;9.868;2023-07-13T13:53:26;24.00;99.90
5172;DHT22;2605;49.770;9.868;2023-07-13T13:55:52;24.00;99.90
5172;DHT22;2605;49.770;9.868;2023-07-13T13:58:18;24.30;99.90
5172;DHT22;2605;49.770;9.868;2023-07-13T14:00:48;24.60;99.90
5172;DHT22;2605;49.770;9.868;2023-07-13T14:03:21;25.50;99.90
5172;DHT22;2605;49.770;9.868;2023-07-13T14:05:48;25.90;99.90
5172;DHT22;2605;49.770;9.868;2023-07-13T14:08:16;24.60;99.90
5172;DHT22;2605;49.770;9.868;2023-07-13T14:10:43;24.20;99.90
5172;DHT22;2605;49.770;9.868;2023-07-13T14:13:25;24.00;99.90
5172;DHT22;2605;49.770;9.868;2023-07-13T14:15:52;23.70;99.90
5172;DHT22;2605;49.770;9.868;2023-07-13T14:18:18;23.50;99.90
5172;DHT22;2605;49.770;9.868;2023-07-13T14:20:47;23.30;99.90
5172;DHT22;2605;49.770;9.868;2023-07-13T14:23:14;23.40;99.90
5172;DHT22;2605;49.770;9.868;2023-07-13T14:25:41;23.50;99.90
5172;DHT22;2605;49.770;9.868;2023-07-13T14:28:21;24.10;99.90
5172;DHT22;2605;49.770;9.868;2023-07-13T14:30:48;24.50;99.90
5172;DHT22;2605;49.770;9.868;2023-07-13T14:33:14;24.60;99.90
5172;DHT22;2605;49.770;9.868;2023-07-13T14:35:40;24.70;99.90
5172;DHT22;2605;49.770;9.868;2023-07-13T14:38:10;24.70;99.90
5172;DHT22;2605;49.770;9.868;2023-07-13T14:40:36;24.60;99.90
5172;DHT22;2605;49.770;9.868;2023-07-13T14:43:02;24.30;99.90
5172;DHT22;2605;49.770;9.868;2023-07-13T14:45:28;24.20;99.90
5172;DHT22;2605;49.770;9.868;2023-07-13T14:47:55;24.20;99.90
5172;DHT22;2605;49.770;9.868;2023-07-13T14:50:30;24.70;99.90
5172;DHT22;2605;49.770;9.868;2023-07-13T14:52:56;25.40;99.90
5172;DHT22;2605;49.770;9.868;2023-07-13T14:55:21;26.50;99.90
5172;DHT22;2605;49.770;9.868;2023-07-13T14:57:48;26.70;99.90
5172;DHT22;2605;49.770;9.868;2023-07-13T15:00:17;25.90;99.90
5172;DHT22;2605;49.770;9.868;2023-07-13T15:02:49;25.00;99.90
5172;DHT22;2605;49.770;9.868;2023-07-13T15:05:17;25.60;99.90
5172;DHT22;2605;49.770;9.868;2023-07-13T15:07:43;26.40;99.90
5172;DHT22;2605;49.770;9.868;2023-07-13T15:10:20;26.70;99.90
5172;DHT22;2605;49.770;9.868;2023-07-13T15:12:46;25.90;99.90
5172;DHT22;2605;49.770;9.868;2023-07-13T15:15:12;25.00;99.90
5172;DHT22;2605;49.770;9.868;2023-07-13T15:17:43;24.90;99.90
5172;DHT22;2605;49.770;9.868;2023-07-13T15:20:16;24.90;99.90
5172;DHT22;2605;49.770;9.868;2023-07-13T15:22:43;25.10;99.90
5172;DHT22;2605;49.770;9.868;2023-07-13T15:25:18;27.10;99.90
5172;DHT22;2605;49.770;9.868;2023-07-13T15:27:44;26.70;99.90
5172;DHT22;2605;49.770;9.868;2023-07-13T15:30:10;26.30;99.90
5172;DHT22;2605;49.770;9.868;2023-07-13T15:32:36;25.60;99.90
5172;DHT22;2605;49.770;9.868;2023-07-13T15:35:02;25.30;99.90
5172;DHT22;2605;49.770;9.868;2023-07-13T15:37:28;27.20;99.90
5172;DHT22;2605;49.770;9.868;2023-07-13T15:39:53;26.90;99.90
5172;DHT22;2605;49.770;9.868;2023-07-13T15:42:20;27.50;99.90
5172;DHT22;2605;49.770;9.868;2023-07-13T15:44:47;28.40;99.90
5172;DHT22;2605;49.770;9.868;2023-07-13T15:47:13;29.10;99.90
5172;DHT22;2605;49.770;9.868;2023-07-13T15:49:40;29.50;99.90
5172;DHT22;2605;49.770;9.868;2023-07-13T15:52:14;29.90;99.90
5172;DHT22;2605;49.770;9.868;2023-07-13T15:54:41;30.00;99.90
5172;DHT22;2605;49.770;9.868;2023-07-13T15:57:09;29.80;99.90
5172;DHT22;2605;49.770;9.868;2023-07-13T15:59:36;29.60;99.90
5172;DHT22;2605;49.770;9.868;2023-07-13T16:02:17;30.00;99.90
5172;DHT22;2605;49.770;9.868;2023-07-13T16:04:43;28.90;99.90
5172;DHT22;2605;49.770;9.868;2023-07-13T16:07:13;27.60;99.90
5172;DHT22;2605;49.770;9.868;2023-07-13T16:09:40;28.10;99.90
5172;DHT22;2605;49.770;9.868;2023-07-13T16:12:13;27.50;99.90
5172;DHT22;2605;49.770;9.868;2023-07-13T16:14:40;26.30;99.90
5172;DHT22;2605;49.770;9.868;2023-07-13T16:17:12;26.30;99.90
5172;DHT22;2605;49.770;9.868;2023-07-13T16:19:38;27.80;99.90
5172;DHT22;2605;49.770;9.868;2023-07-13T16:22:04;28.10;99.90
5172;DHT22;2605;49.770;9.868;2023-07-13T16:24:31;28.10;99.90
5172;DHT22;2605;49.770;9.868;2023-07-13T16:26:57;28.30;99.90
5172;DHT22;2605;49.770;9.868;2023-07-13T16:29:25;28.20;99.90
5172;DHT22;2605;49.770;9.868;2023-07-13T16:32:06;27.90;99.90
5172;DHT22;2605;49.770;9.868;2023-07-13T16:34:34;28.70;99.90
5172;DHT22;2605;49.770;9.868;2023-07-13T16:37:01;28.50;99.90
5172;DHT22;2605;49.770;9.868;2023-07-13T16:39:31;28.30;99.90
5172;DHT22;2605;49.770;9.868;2023-07-13T16:41:58;27.70;99.90
5172;DHT22;2605;49.770;9.868;2023-07-13T16:44:25;28.30;99.90